createdAt,value
2022-09-22T00:01:07.643Z,102415.38
2022-09-22T00:03:43.100Z,102409.41
2022-09-22T00:06:15.406Z,102402.38
2022-09-22T00:08:43.914Z,102416.22
2022-09-22T00:11:18.694Z,102391.59
2022-09-22T00:13:51.134Z,102405.25
2022-09-22T00:16:23.259Z,102405.47
2022-09-22T00:18:50.027Z,102388.91
2022-09-22T00:21:19.002Z,102394.78
2022-09-22T00:23:47.204Z,102404.56
2022-09-22T00:26:18.043Z,102399.53
2022-09-22T00:28:46.252Z,102399.38
2022-09-22T00:31:17.023Z,102399.38
2022-09-22T00:33:45.017Z,102397.91
2022-09-22T00:36:11.455Z,102375.72
2022-09-22T00:38:39.564Z,102382.59
2022-09-22T00:41:08.827Z,102387.81
2022-09-22T00:43:37.465Z,102380.50
2022-09-22T00:46:14.767Z,102371.91
2022-09-22T00:48:57.489Z,102381.44
2022-09-22T00:51:30.794Z,102370.44
2022-09-22T00:54:01.567Z,102359.22
2022-09-22T00:56:37.417Z,102366.88
2022-09-22T00:59:09.349Z,102375.41
2022-09-22T01:01:36.826Z,102366.69
2022-09-22T01:04:04.326Z,102363.75
2022-09-22T01:06:31.005Z,102370.44
2022-09-22T01:08:58.979Z,102364.63
2022-09-22T01:11:26.491Z,102371.91
2022-09-22T01:13:52.794Z,102360.97
2022-09-22T01:16:31.416Z,102359.91
2022-09-22T01:19:13.835Z,102366.19
2022-09-22T01:21:59.141Z,102355.34
2022-09-22T01:24:38.812Z,102331.75
2022-09-22T01:27:11.882Z,102351.16
2022-09-22T01:30:26.018Z,102348.34
2022-09-22T01:33:11.151Z,102347.53
2022-09-22T01:35:48.925Z,102356.22
2022-09-22T01:38:35.909Z,102343.19
2022-09-22T01:41:08.647Z,102337.00
2022-09-22T01:43:49.530Z,102341.66
2022-09-22T01:46:25.087Z,102314.28
2022-09-22T01:48:53.531Z,102338.16
2022-09-22T01:51:25.991Z,102335.72
2022-09-22T01:54:04.507Z,102316.34
2022-09-22T01:56:34.230Z,102332.59
2022-09-22T01:59:05.012Z,102323.59
2022-09-22T02:01:47.824Z,102311.72
2022-09-22T02:04:29.935Z,102318.56
2022-09-22T02:07:02.361Z,102317.06
2022-09-22T02:09:32.770Z,102295.91
2022-09-22T02:11:59.737Z,102314.16
2022-09-22T02:14:26.884Z,102317.78
2022-09-22T02:16:54.386Z,102312.59
2022-09-22T02:19:33.870Z,102307.94
2022-09-22T02:22:00.706Z,102314.88
2022-09-22T02:24:32.085Z,102316.88
2022-09-22T02:27:04.378Z,102286.34
2022-09-22T02:29:34.842Z,102311.44
2022-09-22T02:32:05.081Z,102307.72
2022-09-22T02:34:32.093Z,102309.00
2022-09-22T02:37:35.045Z,102312.28
2022-09-22T02:40:13.619Z,102306.72
2022-09-22T02:42:47.470Z,102281.47
2022-09-22T02:45:19.459Z,102299.00
2022-09-22T02:47:50.399Z,102297.94
2022-09-22T02:50:22.695Z,102293.41
2022-09-22T02:52:52.599Z,102291.47
2022-09-22T02:55:19.778Z,102284.66
2022-09-22T02:57:46.292Z,102292.38
2022-09-22T03:00:13.192Z,102290.00
2022-09-22T03:02:39.626Z,102293.38
2022-09-22T03:05:06.586Z,102288.03
2022-09-22T03:07:33.036Z,102291.75
2022-09-22T03:09:59.480Z,102283.19
2022-09-22T03:12:25.966Z,102289.50
2022-09-22T03:14:52.349Z,102292.03
2022-09-22T03:17:18.822Z,102282.63
2022-09-22T03:19:45.168Z,102284.44
2022-09-22T03:22:11.673Z,102276.59
2022-09-22T03:24:38.026Z,102277.72
2022-09-22T03:27:04.439Z,102273.63
2022-09-22T03:29:30.912Z,102267.47
2022-09-22T03:31:57.335Z,102266.06
2022-09-22T03:34:23.751Z,102270.97
2022-09-22T03:36:50.863Z,102264.97
2022-09-22T03:39:17.337Z,102263.81
2022-09-22T03:41:43.695Z,102255.38
2022-09-22T03:44:10.602Z,102271.66
2022-09-22T03:46:36.961Z,102256.91
2022-09-22T03:49:03.744Z,102276.22
2022-09-22T03:51:30.964Z,102272.56
2022-09-22T03:53:57.378Z,102268.06
2022-09-22T03:56:23.853Z,102262.56
2022-09-22T03:58:50.347Z,102269.44
2022-09-22T04:01:16.788Z,102270.56
2022-09-22T04:03:43.593Z,102270.03
2022-09-22T04:06:10.278Z,102265.94
2022-09-22T04:08:37.189Z,102253.75
2022-09-22T04:11:04.733Z,102255.97
2022-09-22T04:13:31.248Z,102254.16
2022-09-22T04:15:57.718Z,102252.75
2022-09-22T04:18:24.774Z,102255.56
2022-09-22T04:20:57.182Z,102261.31
2022-09-22T04:23:24.919Z,102265.94
2022-09-22T04:25:51.812Z,102263.19
2022-09-22T04:28:18.557Z,102252.28
2022-09-22T04:30:44.949Z,102251.50
2022-09-22T04:33:11.452Z,102253.47
2022-09-22T04:35:38.371Z,102248.34
2022-09-22T04:38:04.898Z,102249.47
2022-09-22T04:40:31.615Z,102255.94
2022-09-22T04:42:58.126Z,102242.88
2022-09-22T04:45:24.726Z,102253.38
2022-09-22T04:47:52.823Z,102246.00
2022-09-22T04:50:21.514Z,102250.31
2022-09-22T04:52:50.087Z,102229.06
2022-09-22T04:55:16.946Z,102249.59
2022-09-22T04:57:54.555Z,102251.13
2022-09-22T05:00:23.877Z,102250.56
2022-09-22T05:02:50.781Z,102247.63
2022-09-22T05:05:17.799Z,102252.56
2022-09-22T05:07:46.230Z,102252.03
2022-09-22T05:10:13.879Z,102248.34
2022-09-22T05:12:43.440Z,102230.69
2022-09-22T05:15:12.167Z,102249.50
2022-09-22T05:17:46.181Z,102241.66
2022-09-22T05:20:13.166Z,102243.38
2022-09-22T05:22:40.371Z,102250.41
2022-09-22T05:25:10.145Z,102248.41
2022-09-22T05:27:37.876Z,102243.13
2022-09-22T05:30:05.750Z,102248.00
2022-09-22T05:32:32.111Z,102252.44
2022-09-22T05:34:58.471Z,102246.84
2022-09-22T05:37:25.908Z,102244.38
2022-09-22T05:39:52.287Z,102251.50
2022-09-22T05:42:18.700Z,102252.44
2022-09-22T05:44:45.067Z,102249.66
2022-09-22T05:47:11.422Z,102242.06
2022-09-22T05:49:37.789Z,102245.91
2022-09-22T05:52:04.232Z,102242.53
2022-09-22T05:54:30.599Z,102254.31
2022-09-22T05:56:56.965Z,102247.06
2022-09-22T05:59:23.354Z,102253.78
2022-09-22T06:01:49.989Z,102239.47
2022-09-22T06:04:16.402Z,102240.88
2022-09-22T06:06:42.765Z,102252.72
2022-09-22T06:09:09.200Z,102246.00
2022-09-22T06:11:35.636Z,102244.19
2022-09-22T06:14:02.091Z,102253.66
2022-09-22T06:16:30.480Z,102253.94
2022-09-22T06:18:57.052Z,102251.81
2022-09-22T06:21:25.842Z,102253.06
2022-09-22T06:23:52.386Z,102247.97
2022-09-22T06:26:18.814Z,102250.69
2022-09-22T06:28:45.256Z,102245.56
2022-09-22T06:31:12.120Z,102249.84
2022-09-22T06:33:38.548Z,102234.06
2022-09-22T06:36:07.967Z,102238.50
2022-09-22T06:38:34.371Z,102241.09
2022-09-22T06:41:02.863Z,102230.09
2022-09-22T06:43:29.203Z,102231.00
2022-09-22T06:46:00.096Z,102238.78
2022-09-22T06:48:26.655Z,102237.16
2022-09-22T06:50:54.184Z,102232.72
2022-09-22T06:53:24.498Z,102234.31
2022-09-22T06:55:54.047Z,102230.34
2022-09-22T06:58:22.267Z,102222.69
2022-09-22T07:00:49.055Z,102226.25
2022-09-22T07:03:21.950Z,102197.28
2022-09-22T07:06:00.938Z,102225.34
2022-09-22T07:08:29.936Z,102231.75
2022-09-22T07:11:04.451Z,102227.13
2022-09-22T07:13:32.228Z,102223.63
2022-09-22T07:16:04.346Z,102221.16
2022-09-22T07:18:30.893Z,102215.97
2022-09-22T07:21:08.994Z,102220.19
2022-09-22T07:23:36.589Z,102217.91
2022-09-22T07:26:05.821Z,102195.19
2022-09-22T07:28:35.517Z,102205.59
2022-09-22T07:31:05.977Z,102210.09
2022-09-22T07:33:36.861Z,102198.22
2022-09-22T07:36:26.095Z,102202.56
2022-09-22T07:38:54.522Z,102196.38
2022-09-22T07:41:23.823Z,102183.66
2022-09-22T07:43:53.526Z,102200.88
2022-09-22T07:46:20.263Z,102183.97
2022-09-22T07:48:48.369Z,102200.19
2022-09-22T07:51:21.606Z,102194.09
2022-09-22T07:54:08.375Z,102182.00
2022-09-22T07:56:41.419Z,102194.97
2022-09-22T07:59:13.002Z,102184.38
2022-09-22T08:01:47.507Z,102191.88
2022-09-22T08:04:16.632Z,102182.72
2022-09-22T08:06:44.347Z,102185.59
2022-09-22T08:09:11.568Z,102191.25
2022-09-22T08:11:38.654Z,102177.75
2022-09-22T08:14:08.017Z,102172.09
2022-09-22T08:16:37.002Z,102177.94
2022-09-22T08:19:10.667Z,102177.47
2022-09-22T08:21:47.719Z,102177.44
2022-09-22T08:24:16.249Z,102168.44
2022-09-22T08:26:48.114Z,102158.66
2022-09-22T08:29:14.874Z,102150.72
2022-09-22T08:31:42.312Z,102154.72
2022-09-22T08:34:09.562Z,102162.16
2022-09-22T08:36:37.539Z,102143.91
2022-09-22T08:39:05.128Z,102143.81
2022-09-22T08:41:41.278Z,102144.09
2022-09-22T08:44:08.737Z,102151.38
2022-09-22T08:46:39.127Z,102126.63
2022-09-22T08:49:32.998Z,102114.88
2022-09-22T08:52:35.488Z,102144.53
2022-09-22T08:55:03.667Z,102141.66
2022-09-22T08:58:07.951Z,102136.22
2022-09-22T09:00:45.330Z,102126.00
2022-09-22T09:03:21.129Z,102135.75
2022-09-22T09:05:51.637Z,102130.13
2022-09-22T09:08:51.724Z,102129.97
2022-09-22T09:11:48.790Z,102137.63
2022-09-22T09:14:44.689Z,102131.88
2022-09-22T09:17:21.049Z,102134.06
2022-09-22T09:19:57.828Z,102132.59
2022-09-22T09:22:29.351Z,102133.59
2022-09-22T09:27:49.395Z,102100.69
2022-09-22T09:30:21.258Z,102121.41
2022-09-22T09:33:00.552Z,102122.59
2022-09-22T09:35:41.317Z,102126.19
2022-09-22T09:38:14.605Z,102110.81
2022-09-22T09:40:41.550Z,102124.72
2022-09-22T09:43:08.875Z,102134.66
2022-09-22T09:46:11.649Z,102130.16
2022-09-22T09:49:03.034Z,102130.53
2022-09-22T09:51:29.538Z,102126.63
2022-09-22T09:53:58.356Z,102113.44
2022-09-22T09:56:28.346Z,102123.38
2022-09-22T09:59:22.105Z,102122.84
2022-09-22T10:01:51.074Z,102114.16
2022-09-22T10:04:21.389Z,102112.25
2022-09-22T10:06:48.561Z,102108.16
2022-09-22T10:09:25.938Z,102112.97
2022-09-22T10:12:00.591Z,102106.94
2022-09-22T10:14:31.514Z,102096.19
2022-09-22T10:16:57.974Z,102099.09
2022-09-22T10:19:31.312Z,102098.09
2022-09-22T10:22:22.285Z,102096.06
2022-09-22T10:25:01.263Z,102083.91
2022-09-22T10:27:29.987Z,102072.06
2022-09-22T10:30:22.571Z,102079.88
2022-09-22T10:33:15.649Z,102081.63
2022-09-22T10:35:45.155Z,102083.63
2022-09-22T10:38:18.872Z,102070.88
2022-09-22T10:40:55.007Z,102077.84
2022-09-22T10:43:42.547Z,102069.66
2022-09-22T10:46:09.010Z,102076.19
2022-09-22T10:48:49.133Z,102071.34
2022-09-22T10:51:38.770Z,102056.00
2022-09-22T10:54:23.614Z,102046.59
2022-09-22T10:56:54.581Z,102053.63
2022-09-22T10:59:37.289Z,102058.09
2022-09-22T11:02:25.125Z,102055.41
2022-09-22T11:05:10.334Z,102061.34
2022-09-22T11:08:19.710Z,102058.84
2022-09-22T11:11:39.958Z,102070.56
2022-09-22T11:14:21.055Z,102055.78
2022-09-22T11:16:53.400Z,102042.94
2022-09-22T11:19:50.114Z,102041.16
2022-09-22T11:22:37.805Z,102039.28
2022-09-22T11:25:23.044Z,102061.47
2022-09-22T11:27:58.474Z,102043.88
2022-09-22T11:30:25.276Z,102027.84
2022-09-22T11:33:09.984Z,102020.84
2022-09-22T11:36:13.068Z,102020.22
2022-09-22T11:38:57.977Z,102027.03
2022-09-22T11:41:36.387Z,102012.72
2022-09-22T11:44:21.644Z,102014.75
2022-09-22T11:47:16.018Z,102012.03
2022-09-22T11:50:05.078Z,102009.56
2022-09-22T11:52:59.075Z,101998.94
2022-09-22T11:55:32.615Z,102001.09
2022-09-22T11:58:05.074Z,101998.84
2022-09-22T12:00:42.570Z,102003.16
2022-09-22T12:03:18.641Z,101994.72
2022-09-22T12:05:51.910Z,101996.25
2022-09-22T12:08:24.843Z,101997.72
2022-09-22T12:10:52.800Z,102000.13
2022-09-22T12:13:25.502Z,101983.84
2022-09-22T12:16:06.000Z,101983.88
2022-09-22T12:19:10.041Z,101989.06
2022-09-22T12:21:39.200Z,101985.56
2022-09-22T12:24:11.219Z,101978.00
2022-09-22T12:26:44.373Z,101977.31
2022-09-22T12:29:14.310Z,101962.50
2022-09-22T12:31:43.621Z,101957.94
2022-09-22T12:34:31.828Z,101959.97
2022-09-22T12:37:09.386Z,101962.13
2022-09-22T12:39:42.647Z,101924.72
2022-09-22T12:42:36.298Z,101951.66
2022-09-22T12:45:15.081Z,101958.84
2022-09-22T12:47:42.731Z,101946.97
2022-09-22T12:50:24.203Z,101944.09
2022-09-22T12:52:51.148Z,101958.97
2022-09-22T12:55:18.454Z,101944.78
2022-09-22T12:57:47.444Z,101906.84
2022-09-22T13:00:23.112Z,101932.31
2022-09-22T13:02:50.337Z,101936.03
2022-09-22T13:05:25.947Z,101933.66
2022-09-22T13:07:53.803Z,101934.50
2022-09-22T13:10:23.682Z,101927.19
2022-09-22T13:13:02.362Z,101927.13
2022-09-22T13:15:34.106Z,101922.34
2022-09-22T13:18:00.601Z,101924.81
2022-09-22T13:20:32.332Z,101911.31
2022-09-22T13:23:26.186Z,101917.09
2022-09-22T13:25:53.613Z,101920.53
2022-09-22T13:28:26.024Z,101907.28
2022-09-22T13:31:10.038Z,101908.53
2022-09-22T13:33:36.802Z,101911.06
2022-09-22T13:36:07.486Z,101910.66
2022-09-22T13:38:43.451Z,101902.13
2022-09-22T13:41:12.523Z,101900.38
2022-09-22T13:43:42.240Z,101903.50
2022-09-22T13:46:26.715Z,101907.09
2022-09-22T13:48:56.594Z,101896.97
2022-09-22T13:51:24.966Z,101903.56
2022-09-22T13:53:54.184Z,101894.22
2022-09-22T13:56:23.433Z,101892.13
2022-09-22T13:58:51.657Z,101902.28
2022-09-22T14:01:23.540Z,101905.56
2022-09-22T14:03:51.502Z,101899.16
2022-09-22T14:06:24.370Z,101903.75
2022-09-22T14:08:53.088Z,101893.69
2022-09-22T14:11:25.700Z,101881.59
2022-09-22T14:13:55.799Z,101889.72
2022-09-22T14:16:40.433Z,101892.47
2022-09-22T14:19:21.117Z,101889.16
2022-09-22T14:21:58.511Z,101874.09
2022-09-22T14:24:26.344Z,101875.50
2022-09-22T14:27:05.422Z,101885.88
2022-09-22T14:29:35.519Z,101881.19
2022-09-22T14:32:23.781Z,101888.47
2022-09-22T14:34:58.351Z,101874.16
2022-09-22T14:37:32.798Z,101874.34
2022-09-22T14:40:02.607Z,101870.22
2022-09-22T14:42:31.510Z,101851.94
2022-09-22T14:45:10.163Z,101871.00
2022-09-22T14:47:40.500Z,101861.25
2022-09-22T14:50:20.475Z,101857.72
2022-09-22T14:52:54.368Z,101853.53
2022-09-22T14:55:27.058Z,101850.28
2022-09-22T14:57:53.573Z,101857.72
2022-09-22T15:00:38.552Z,101863.56
2022-09-22T15:03:19.129Z,101866.72
2022-09-22T15:05:46.127Z,101866.94
2022-09-22T15:08:18.090Z,101845.78
2022-09-22T15:10:52.854Z,101857.59
2022-09-22T15:13:31.507Z,101862.16
2022-09-22T15:15:58.496Z,101869.25
2022-09-22T15:18:29.782Z,101861.81
2022-09-22T15:20:59.960Z,101862.63
2022-09-22T15:23:29.194Z,101861.59
2022-09-22T15:25:56.146Z,101857.00
2022-09-22T15:28:25.221Z,101822.81
2022-09-22T15:30:53.275Z,101850.38
2022-09-22T15:33:21.072Z,101838.28
2022-09-22T15:35:52.010Z,101837.88
2022-09-22T15:38:26.775Z,101839.13
2022-09-22T15:40:54.560Z,101839.78
2022-09-22T15:43:23.414Z,101836.69
2022-09-22T15:45:53.749Z,101817.88
2022-09-22T15:48:27.725Z,101832.97
2022-09-22T15:50:55.189Z,101821.94
2022-09-22T15:53:23.127Z,101822.56
2022-09-22T15:55:51.336Z,101820.53
2022-09-22T15:58:19.752Z,101821.78
2022-09-22T16:00:47.617Z,101828.22
2022-09-22T16:03:23.790Z,101812.06
2022-09-22T16:05:57.553Z,101805.25
2022-09-22T16:08:28.687Z,101809.19
2022-09-22T16:11:00.179Z,101814.94
2022-09-22T16:13:27.865Z,101813.97
2022-09-22T16:15:54.903Z,101831.16
2022-09-22T16:18:22.050Z,101821.44
2022-09-22T16:20:51.553Z,101822.50
2022-09-22T16:23:19.513Z,101826.00
2022-09-22T16:25:46.498Z,101822.50
2022-09-22T16:28:13.466Z,101813.19
2022-09-22T16:30:40.318Z,101815.50
2022-09-22T16:33:06.731Z,101819.84
2022-09-22T16:35:33.133Z,101803.28
2022-09-22T16:38:01.189Z,101811.56
2022-09-22T16:40:29.514Z,101813.63
2022-09-22T16:42:56.056Z,101817.78
2022-09-22T16:45:43.069Z,101824.25
2022-09-22T16:48:09.478Z,101813.47
2022-09-22T16:50:37.044Z,101808.50
2022-09-22T16:53:05.878Z,101813.09
2022-09-22T16:55:36.764Z,101808.78
2022-09-22T16:58:10.677Z,101820.63
2022-09-22T17:00:47.336Z,101802.59
2022-09-22T17:03:13.740Z,101822.06
2022-09-22T17:05:41.081Z,101801.97
2022-09-22T17:08:08.520Z,101812.97
2022-09-22T17:10:39.089Z,101817.13
2022-09-22T17:13:05.430Z,101810.06
2022-09-22T17:15:37.065Z,101808.63
2022-09-22T17:18:04.122Z,101807.59
2022-09-22T17:20:30.729Z,101820.88
2022-09-22T17:22:57.487Z,101813.00
2022-09-22T17:25:29.066Z,101810.72
2022-09-22T17:27:56.302Z,101810.31
2022-09-22T17:30:22.668Z,101808.22
2022-09-22T17:32:49.054Z,101804.06
2022-09-22T17:35:15.458Z,101815.25
2022-09-22T17:37:41.934Z,101817.72
2022-09-22T17:40:08.955Z,101809.00
2022-09-22T17:42:37.556Z,101820.59
2022-09-22T17:45:07.314Z,101813.50
2022-09-22T17:47:52.130Z,101804.19
2022-09-22T17:50:37.035Z,101812.47
2022-09-22T17:53:22.031Z,101807.66
2022-09-22T17:55:48.422Z,101820.53
2022-09-22T17:58:14.863Z,101822.63
2022-09-22T18:00:42.094Z,101815.38
2022-09-22T18:03:08.617Z,101822.41
2022-09-22T18:05:38.626Z,101813.69
2022-09-22T18:08:05.081Z,101811.84
2022-09-22T18:10:32.395Z,101814.13
2022-09-22T18:12:59.557Z,101813.28
2022-09-22T18:15:28.060Z,101805.19
2022-09-22T18:17:57.663Z,101815.38
2022-09-22T18:20:25.606Z,101812.66
2022-09-22T18:22:52.039Z,101820.91
2022-09-22T18:25:25.667Z,101822.78
2022-09-22T18:27:53.543Z,101820.06
2022-09-22T18:30:20.227Z,101810.72
2022-09-22T18:32:49.461Z,101813.19
2022-09-22T18:35:17.328Z,101798.88
2022-09-22T18:37:43.812Z,101820.63
2022-09-22T18:40:12.461Z,101818.13
2022-09-22T18:42:39.710Z,101811.66
2022-09-22T18:45:06.695Z,101818.53
2022-09-22T18:47:36.745Z,101813.94
2022-09-22T18:50:04.775Z,101818.06
2022-09-22T18:52:31.554Z,101821.34
2022-09-22T18:54:58.898Z,101825.47
2022-09-22T18:57:26.922Z,101818.19
2022-09-22T18:59:54.025Z,101823.72
2022-09-22T19:02:22.489Z,101829.50
2022-09-22T19:04:50.825Z,101823.84
2022-09-22T19:07:40.355Z,101828.78
2022-09-22T19:10:09.963Z,101834.72
2022-09-22T19:12:39.302Z,101814.41
2022-09-22T19:15:08.588Z,101831.78
2022-09-22T19:17:34.940Z,101827.84
2022-09-22T19:20:01.671Z,101828.44
2022-09-22T19:22:29.099Z,101834.44
2022-09-22T19:24:55.826Z,101815.78
2022-09-22T19:27:22.609Z,101823.75
2022-09-22T19:29:50.583Z,101827.09
2022-09-22T19:32:17.043Z,101825.59
2022-09-22T19:34:43.470Z,101828.09
2022-09-22T19:37:09.860Z,101825.41
2022-09-22T19:39:36.417Z,101827.84
2022-09-22T19:42:02.990Z,101824.44
2022-09-22T19:44:30.465Z,101826.13
2022-09-22T19:46:57.940Z,101826.78
2022-09-22T19:49:25.529Z,101818.81
2022-09-22T19:51:53.306Z,101815.13
2022-09-22T19:54:20.858Z,101815.69
2022-09-22T19:56:48.599Z,101815.94
2022-09-22T19:59:16.681Z,101807.06
2022-09-22T20:01:43.180Z,101811.22
2022-09-22T20:04:13.865Z,101778.63
2022-09-22T20:06:40.523Z,101809.97
2022-09-22T20:09:06.929Z,101811.16
2022-09-22T20:11:38.865Z,101762.19
2022-09-22T20:14:19.936Z,101803.88
2022-09-22T20:16:55.227Z,101795.78
2022-09-22T20:19:25.827Z,101791.59
2022-09-22T20:21:55.002Z,101780.94
2022-09-22T20:24:22.863Z,101794.75
2022-09-22T20:26:49.424Z,101784.03
2022-09-22T20:29:16.972Z,101793.19
2022-09-22T20:31:44.312Z,101782.00
2022-09-22T20:34:14.994Z,101778.66
2022-09-22T20:36:43.150Z,101776.75
2022-09-22T20:39:15.016Z,101779.38
2022-09-22T20:41:42.645Z,101769.25
2022-09-22T20:44:13.055Z,101763.06
2022-09-22T20:46:40.606Z,101760.19
2022-09-22T20:49:07.281Z,101762.03
2022-09-22T20:51:35.102Z,101756.66
2022-09-22T20:54:01.821Z,101743.00
2022-09-22T20:56:28.277Z,101757.06
2022-09-22T20:58:54.708Z,101755.84
2022-09-22T21:01:21.369Z,101757.19
2022-09-22T21:03:47.997Z,101753.78
2022-09-22T21:06:15.867Z,101756.94
2022-09-22T21:09:02.198Z,101753.97
2022-09-22T21:11:29.966Z,101748.63
2022-09-22T21:14:05.605Z,101756.47
2022-09-22T21:16:34.653Z,101753.19
2022-09-22T21:19:04.331Z,101742.53
2022-09-22T21:21:32.573Z,101745.22
2022-09-22T21:24:02.911Z,101742.06
2022-09-22T21:26:30.521Z,101740.59
2022-09-22T21:28:58.331Z,101743.09
2022-09-22T21:31:25.080Z,101733.13
2022-09-22T21:33:52.207Z,101735.16
2022-09-22T21:36:23.851Z,101725.97
2022-09-22T21:38:58.141Z,101715.34
2022-09-22T21:41:27.277Z,101733.00
2022-09-22T21:43:54.162Z,101728.00
2022-09-22T21:46:23.533Z,101722.63
2022-09-22T21:48:50.351Z,101721.19
2022-09-22T21:51:19.665Z,101717.66
2022-09-22T21:53:48.418Z,101713.69
2022-09-22T21:56:16.433Z,101715.34
2022-09-22T21:58:45.004Z,101715.16
2022-09-22T22:01:14.196Z,101688.09
2022-09-22T22:03:42.292Z,101698.06
2022-09-22T22:06:12.142Z,101702.59
2022-09-22T22:08:51.231Z,101696.69
2022-09-22T22:11:22.386Z,101697.72
2022-09-22T22:13:53.658Z,101691.06
2022-09-22T22:16:26.341Z,101699.94
2022-09-22T22:18:52.964Z,101690.88
2022-09-22T22:21:24.998Z,101697.16
2022-09-22T22:23:54.912Z,101694.19
2022-09-22T22:26:25.738Z,101693.81
2022-09-22T22:28:52.799Z,101695.41
2022-09-22T22:31:22.727Z,101698.63
2022-09-22T22:33:49.703Z,101693.91
2022-09-22T22:36:18.002Z,101690.78
2022-09-22T22:38:45.252Z,101692.19
2022-09-22T22:41:14.513Z,101697.97
2022-09-22T22:43:41.677Z,101699.84
2022-09-22T22:46:10.047Z,101694.66
2022-09-22T22:48:37.057Z,101697.16
2022-09-22T22:51:17.235Z,101687.44
2022-09-22T22:53:44.038Z,101685.50
2022-09-22T22:56:13.824Z,101693.00
2022-09-22T22:58:40.229Z,101672.50
2022-09-22T23:01:18.650Z,101681.81
2022-09-22T23:03:51.553Z,101684.47
2022-09-22T23:06:29.723Z,101679.97
2022-09-22T23:08:56.397Z,101671.75
2022-09-22T23:11:26.982Z,101674.41
2022-09-22T23:13:56.208Z,101666.94
2022-09-22T23:16:24.670Z,101665.53
2022-09-22T23:18:52.304Z,101667.69
2022-09-22T23:21:20.507Z,101670.38
2022-09-22T23:23:48.594Z,101661.03
2022-09-22T23:26:16.789Z,101665.91
2022-09-22T23:28:43.795Z,101658.72
2022-09-22T23:31:16.169Z,101660.94
2022-09-22T23:33:45.457Z,101662.03
2022-09-22T23:36:18.748Z,101664.16
2022-09-22T23:38:45.285Z,101652.25
2022-09-22T23:41:12.061Z,101660.75
2022-09-22T23:43:38.459Z,101646.78
2022-09-22T23:46:07.531Z,101650.13
2022-09-22T23:48:35.099Z,101649.19
2022-09-22T23:51:01.968Z,101648.09
2022-09-22T23:53:32.417Z,101645.41
2022-09-22T23:55:58.908Z,101649.56
2022-09-22T23:58:25.491Z,101649.38
